Malolo — ABC1234 — position and weather

sailwx.info

Track history (hours):
 
Tides and Currents Weather Stations Pressure Air Temp Water Temp Dewpoint Dewpoint Depression Visibility Wind Speed Wind Dir Waves Ship Positions

Malolo

Last reported at 2016-Jul-25 21:15 UTC. Time now 2016-Jul-28 02:53 UTC.
Position N 33°55' W 118°28'.

Length 14 m.

Type: Sailing vessel. MMSI: 338047815.

Date/timePositionNaut miles runAvg speedWind from/ knotsBaromVisibWave heightAir tempDewpointWater temp
2016-Jul-25 21:15N 33°55' W 118°28'6 6.9
2016-Jul-25 20:19N 33°48' W 118°29'5 6.6
2016-Jul-25 19:32N 33°43' W 118°29'7 6.4
2016-Jul-25 18:30N 33°36' W 118°30'22 0.7
2016-Jul-24 08:19N 33°59' W 118°27'0 0.0
2016-Jul-23 20:25N 33°59' W 118°27'31 1.3
2016-Jul-22 20:06N 33°28' W 118°30'3 5.9
2016-Jul-22 19:33N 33°31' W 118°30'8 5.8
2016-Jul-22 18:14N 33°39' W 118°29'4 5.7
2016-Jul-22 17:32N 33°43' W 118°29'  
2016-Jul-16 17:25N 33°36' W 118°20'2 0.1
2016-Jul-15 23:17N 33°38' W 118°20'  
Track history (hours):
 
Tides and Currents Weather Stations Pressure Air Temp Water Temp Dewpoint Dewpoint Depression Visibility Wind Speed Wind Dir Waves Ship Positions

Malolo

Last reported at 2016-Jul-25 21:15 UTC. Time now 2016-Jul-28 02:53 UTC.
Position N 33°55' W 118°28'.

Length 14 m.

Type: Sailing vessel. MMSI: 338047815.

Date/timePositionNaut miles runAvg speedWind from/ knotsBaromVisibWave heightAir tempDewpointWater temp
2016-Jul-25 21:15N 33°55' W 118°28'6 6.9
2016-Jul-25 20:19N 33°48' W 118°29'5 6.6
2016-Jul-25 19:32N 33°43' W 118°29'7 6.4
2016-Jul-25 18:30N 33°36' W 118°30'22 0.7
2016-Jul-24 08:19N 33°59' W 118°27'0 0.0
2016-Jul-23 20:25N 33°59' W 118°27'31 1.3
2016-Jul-22 20:06N 33°28' W 118°30'3 5.9
2016-Jul-22 19:33N 33°31' W 118°30'8 5.8
2016-Jul-22 18:14N 33°39' W 118°29'4 5.7
2016-Jul-22 17:32N 33°43' W 118°29'  
2016-Jul-16 17:25N 33°36' W 118°20'2 0.1
2016-Jul-15 23:17N 33°38' W 118°20'  

Dump ship's entire track history